Riverwatch, Tennessee
Current Conditions -  °F | °C
As of 2:15 PM on Thursday 30 Oct 2014 (Local Time) from KSRB Reporting Station
Clear Clear  
Wind Chill: 61°   Ceiling: Unl
Heat Index: 61°   Visibility: 10mi
Dew Point: 39°   Wind: 5mph
Humidity: 45%   Direction: 340°NNW
Pressure: 30.06"   Gusts: NA
Location:  35.9428°N, 85.4474°W
Report Text: KSRB 301915Z AUTO 34004KT 10SM CLR 16/04 A3006 RMK
Loading
Personal Weather Stations






























Interactive Weather Map
Tropical Storm Tracking
New forecast layout! Learn more

10-Day Weather Forecast

Advertisements
Track Severe Weather on mobile